Bisbee, AZ (85603)

5:49 PM MST on February 07, 2016 (GMT -0700)
Bisbee, Historic | | Change Station
CLOSE
Current Station
Personal Weather Station
Location: Bisbee, AZ
Elevation: 5378 ft
Nearby Weather Stations

Elev 5378 ft 31.44 °N, 109.91 °W | Updated 5 seconds ago

Clear
Clear
55.4 °F
Feels Like 55.4 °F
N
2.0
Wind Variable Wind from West
Gusts 4.0 mph

Today
High -- | Low -- °F
--% Chance of Precip.
Yesterday
High -- | Low -- °F
Precip. -- in
Pressure 30.15 in
Visibility 10.0 miles
Clouds Clear
Dew Point 14 °F
Humidity 19%
Rainfall 0.00 in
Snow Depth Not available.
7:08 AM 5:59 PM
Waning Crescent, 0% visible
METAR KDUG 072356Z AUTO 32004KT 10SM CLR 18/M12 A3021 RMK AO2 SLP209 T01831122 10200 20133 55002 $
Pressure 30.15 in
Visibility 10.0 miles
Clouds Clear
Dew Point 14 °F
Humidity 19%
Rainfall 0.00 in
Snow Depth Not available.
7:08 AM 5:59 PM
Waning Crescent, 0% visible
METAR KDUG 072356Z AUTO 32004KT 10SM CLR 18/M12 A3021 RMK AO2 SLP209 T01831122 10200 20133 55002 $

10-Day Weather Forecast

Almanac

Astronomy

Feb. 07, 2016 Rise Set
Actual Time
Civil Twilight
Nautical Twilight
Astronomical Twilight
Moon
Length of Visible Light
Length of Day
Tomorrow will be .
, % of the Moon is Illuminated

Today's Extremes

State Highs State Lows

Community

WunderPhotos

Upload Photos

1,891,339 photos uploaded!

WunderBlog® & News

Nearby

Air Quality

  Air Quality AQ Index Pollutant
Not available.

Snow Depth

Station Depth Elevation

Earthquake Activity

City Distance Mag. Time & Date
Minimum magnitude displayed is 2.5.

Coastal Water Temperatures

Place Temperature

Stations

Nearby Weather Stations

Station Location Temp. Windchill Dew Point Humidity Wind Precip. Elev Updated Type
                   

Watches & Warnings

There are currently no watches in effect.